Time;durP1;ratioP1;P1;durP2;ratioP2;P2;SDS_P1;SDS_P2;PMS_P1;PMS_P2;Temp;Humidity;BMP_temperature;BMP_pressure;BME280_temperature;BME280_humidity;BME280_pressure;Samples;Min_cycle;Max_cycle;Signal;HPM_P1;HPM_P2
2024/01/29 00:02:01;;;;;;;0.00;0.00;;;;;;;;;;5016220;28;20026;-87
2024/01/29 00:04:27;;;;;;;0.00;0.00;;;;;;;;;;5019343;28;20021;-87
2024/01/29 00:06:53;;;;;;;0.00;0.00;;;;;;;;;;5037996;28;20443;-87
2024/01/29 00:09:18;;;;;;;0.00;0.00;;;;;;;;;;5036500;28;20451;-87
2024/01/29 00:11:44;;;;;;;0.00;0.00;;;;;;;;;;5037751;28;20037;-86
2024/01/29 00:14:09;;;;;;;0.00;0.00;;;;;;;;;;5000115;28;20028;-86
2024/01/29 00:16:35;;;;;;;0.00;0.00;;;;;;;;;;5016467;28;20025;-86
2024/01/29 00:19:00;;;;;;;0.00;0.00;;;;;;;;;;5000009;28;20434;-86
2024/01/29 00:21:26;;;;;;;0.00;0.00;;;;;;;;;;4999439;28;20443;-87
2024/01/29 00:23:51;;;;;;;0.00;0.00;;;;;;;;;;5017938;28;20025;-86
2024/01/29 00:26:17;;;;;;;0.00;0.00;;;;;;;;;;4999640;28;20370;-87
2024/01/29 00:28:43;;;;;;;0.00;0.00;;;;;;;;;;5000614;28;20066;-86
2024/01/29 00:31:09;;;;;;;0.00;0.00;;;;;;;;;;4983734;28;20080;-87
2024/01/29 00:33:35;;;;;;;0.00;0.00;;;;;;;;;;5000104;28;20034;-87
2024/01/29 00:36:01;;;;;;;0.00;0.00;;;;;;;;;;4999959;28;20517;-86
2024/01/29 00:38:26;;;;;;;0.00;0.00;;;;;;;;;;4999642;28;20046;-86
2024/01/29 00:40:52;;;;;;;0.00;0.00;;;;;;;;;;4999781;28;20034;-86
2024/01/29 00:43:17;;;;;;;0.00;0.00;;;;;;;;;;5017376;28;20029;-86
2024/01/29 00:45:43;;;;;;;0.00;0.00;;;;;;;;;;4999837;28;20037;-86
2024/01/29 00:48:08;;;;;;;0.00;0.00;;;;;;;;;;5016130;28;20030;-85
2024/01/29 00:50:34;;;;;;;0.00;0.00;;;;;;;;;;5017018;28;20034;-87
2024/01/29 00:52:59;;;;;;;0.00;0.00;;;;;;;;;;4999735;28;20583;-86
2024/01/29 00:55:25;;;;;;;0.00;0.00;;;;;;;;;;5028332;28;20091;-85
2024/01/29 00:57:50;;;;;;;0.00;0.00;;;;;;;;;;5035568;28;20033;-85
2024/01/29 01:00:16;;;;;;;0.00;0.00;;;;;;;;;;5037107;28;20033;-86
2024/01/29 01:02:42;;;;;;;0.00;0.00;;;;;;;;;;5036969;28;20045;-87
2024/01/29 01:05:07;;;;;;;0.00;0.00;;;;;;;;;;5035466;28;20029;-86
2024/01/29 01:07:33;;;;;;;0.00;0.00;;;;;;;;;;5035282;28;20060;-86
2024/01/29 01:09:58;;;;;;;0.00;0.00;;;;;;;;;;5018980;28;20060;-86
2024/01/29 01:12:24;;;;;;;0.00;0.00;;;;;;;;;;5036620;28;20375;-86
2024/01/29 01:14:49;;;;;;;0.00;0.00;;;;;;;;;;5005634;28;20038;-87
2024/01/29 01:17:15;;;;;;;0.00;0.00;;;;;;;;;;4978093;28;20037;-86
2024/01/29 01:19:40;;;;;;;0.00;0.00;;;;;;;;;;5016441;28;20369;-87
2024/01/29 01:22:06;;;;;;;0.00;0.00;;;;;;;;;;5016838;28;20041;-87
2024/01/29 01:24:31;;;;;;;0.00;0.00;;;;;;;;;;4999120;28;20132;-87
2024/01/29 01:26:57;;;;;;;0.00;0.00;;;;;;;;;;5016345;28;20349;-87
2024/01/29 01:29:22;;;;;;;0.00;0.00;;;;;;;;;;4998895;28;20040;-86
2024/01/29 01:31:48;;;;;;;0.00;0.00;;;;;;;;;;4998950;28;20025;-87
2024/01/29 01:34:13;;;;;;;0.00;0.00;;;;;;;;;;5016346;28;20061;-87
2024/01/29 01:36:39;;;;;;;0.00;0.00;;;;;;;;;;5016257;28;20069;-87
2024/01/29 01:39:05;;;;;;;0.00;0.00;;;;;;;;;;5016058;28;20033;-87
2024/01/29 01:41:30;;;;;;;0.00;0.00;;;;;;;;;;5015019;28;20030;-87
2024/01/29 01:43:56;;;;;;;0.00;0.00;;;;;;;;;;4998709;28;20025;-88
2024/01/29 01:46:22;;;;;;;0.00;0.00;;;;;;;;;;5015934;28;20033;-87
2024/01/29 01:48:52;;;;;;;0.00;0.00;;;;;;;;;;4982412;28;20033;-86
2024/01/29 01:51:21;;;;;;;0.00;0.00;;;;;;;;;;4982438;28;20068;-87
2024/01/29 01:53:48;;;;;;;0.00;0.00;;;;;;;;;;5015856;28;20080;-87
2024/01/29 01:56:13;;;;;;;0.00;0.00;;;;;;;;;;5017978;28;20049;-87
2024/01/29 01:58:42;;;;;;;0.00;0.00;;;;;;;;;;5018243;28;20125;-87
2024/01/29 02:01:08;;;;;;;0.00;0.00;;;;;;;;;;5034470;28;20469;-87
2024/01/29 02:03:33;;;;;;;0.00;0.00;;;;;;;;;;5036111;28;20052;-87
2024/01/29 02:05:59;;;;;;;0.00;0.00;;;;;;;;;;5017851;28;20439;-86
2024/01/29 02:08:24;;;;;;;0.00;0.00;;;;;;;;;;5017559;28;20446;-87
2024/01/29 02:10:50;;;;;;;0.00;0.00;;;;;;;;;;5017738;28;20029;-87
2024/01/29 02:13:16;;;;;;;0.00;0.00;;;;;;;;;;5017736;28;20029;-86
2024/01/29 02:15:41;;;;;;;0.00;0.00;;;;;;;;;;5035320;28;20454;-87
2024/01/29 02:18:07;;;;;;;0.00;0.00;;;;;;;;;;5012952;28;20056;-87
2024/01/29 02:20:34;;;;;;;0.00;0.00;;;;;;;;;;5013942;28;20030;-87
2024/01/29 02:22:59;;;;;;;0.00;0.00;;;;;;;;;;4997976;28;20042;-87
2024/01/29 02:25:25;;;;;;;0.00;0.00;;;;;;;;;;5015734;28;20052;-87
2024/01/29 02:27:50;;;;;;;0.00;0.00;;;;;;;;;;5015046;28;20038;-86
2024/01/29 02:30:16;;;;;;;0.00;0.00;;;;;;;;;;5015198;28;20057;-87
2024/01/29 02:32:41;;;;;;;0.00;0.00;;;;;;;;;;5015362;28;20022;-87
2024/01/29 02:35:07;;;;;;;0.00;0.00;;;;;;;;;;4997510;28;20025;-86
2024/01/29 02:37:33;;;;;;;0.00;0.00;;;;;;;;;;5015159;28;20410;-85
2024/01/29 02:39:58;;;;;;;0.00;0.00;;;;;;;;;;5014922;28;20022;-86
2024/01/29 02:42:24;;;;;;;0.00;0.00;;;;;;;;;;4997526;28;20116;-86
2024/01/29 02:44:50;;;;;;;0.00;0.00;;;;;;;;;;4997489;28;20017;-87
2024/01/29 02:47:16;;;;;;;0.00;0.00;;;;;;;;;;4997483;28;20448;-86
2024/01/29 02:49:43;;;;;;;0.00;0.00;;;;;;;;;;5014609;28;20105;-86
2024/01/29 02:52:09;;;;;;;0.00;0.00;;;;;;;;;;4997023;28;20129;-85
2024/01/29 02:54:35;;;;;;;0.00;0.00;;;;;;;;;;5013545;28;20041;-86
2024/01/29 02:57:00;;;;;;;0.00;0.00;;;;;;;;;;4980972;28;20036;-86
2024/01/29 02:59:26;;;;;;;0.00;0.00;;;;;;;;;;5014707;28;20030;-86
2024/01/29 03:01:51;;;;;;;0.00;0.00;;;;;;;;;;4997201;28;20037;-86
2024/01/29 03:04:17;;;;;;;0.00;0.00;;;;;;;;;;5014293;28;20025;-86
2024/01/29 03:06:42;;;;;;;0.00;0.00;;;;;;;;;;5014838;28;20491;-87
2024/01/29 03:09:08;;;;;;;0.00;0.00;;;;;;;;;;4997595;28;20026;-87
2024/01/29 03:11:33;;;;;;;0.00;0.00;;;;;;;;;;5014956;28;20112;-86
2024/01/29 03:14:00;;;;;;;0.00;0.00;;;;;;;;;;5004537;28;20113;-85
2024/01/29 03:16:26;;;;;;;0.00;0.00;;;;;;;;;;5019023;28;20022;-86
2024/01/29 03:18:51;;;;;;;0.00;0.00;;;;;;;;;;5036456;28;20022;-85
2024/01/29 03:21:17;;;;;;;0.00;0.00;;;;;;;;;;5020726;28;20048;-85
2024/01/29 03:23:42;;;;;;;0.00;0.00;;;;;;;;;;5039874;28;20069;-86
2024/01/29 03:26:08;;;;;;;0.00;0.00;;;;;;;;;;5015492;28;20038;-85
2024/01/29 03:28:33;;;;;;;0.00;0.00;;;;;;;;;;5032822;28;20381;-86
2024/01/29 03:30:59;;;;;;;0.00;0.00;;;;;;;;;;5033057;28;20026;-86
2024/01/29 03:33:24;;;;;;;0.00;0.00;;;;;;;;;;5015916;28;20025;-87
2024/01/29 03:35:50;;;;;;;0.00;0.00;;;;;;;;;;5016121;28;20033;-87
2024/01/29 03:38:15;;;;;;;0.00;0.00;;;;;;;;;;5031895;28;20120;-87
2024/01/29 03:40:41;;;;;;;0.00;0.00;;;;;;;;;;5033684;28;20056;-87
2024/01/29 03:43:06;;;;;;;0.00;0.00;;;;;;;;;;5016174;28;20026;-86
2024/01/29 03:45:32;;;;;;;0.00;0.00;;;;;;;;;;5034051;28;20036;-87
2024/01/29 03:47:57;;;;;;;0.00;0.00;;;;;;;;;;5015616;28;20037;-86
2024/01/29 03:50:23;;;;;;;0.00;0.00;;;;;;;;;;5033979;28;20483;-86
2024/01/29 03:52:50;;;;;;;0.00;0.00;;;;;;;;;;5033458;28;20045;-87
2024/01/29 03:55:15;;;;;;;0.00;0.00;;;;;;;;;;5000137;28;20021;-87
2024/01/29 03:57:41;;;;;;;0.00;0.00;;;;;;;;;;5033553;28;20025;-86
2024/01/29 04:00:07;;;;;;;0.00;0.00;;;;;;;;;;5032181;28;20378;-87
2024/01/29 04:02:33;;;;;;;0.00;0.00;;;;;;;;;;5015723;28;20078;-86
2024/01/29 04:04:58;;;;;;;0.00;0.00;;;;;;;;;;5016318;28;20132;-86
2024/01/29 04:07:23;;;;;;;0.00;0.00;;;;;;;;;;5033986;28;20370;-85
2024/01/29 04:09:49;;;;;;;0.00;0.00;;;;;;;;;;5033400;28;20025;-87
2024/01/29 04:12:15;;;;;;;0.00;0.00;;;;;;;;;;5015695;28;20033;-86
2024/01/29 04:14:41;;;;;;;0.00;0.00;;;;;;;;;;4999576;28;20036;-87
2024/01/29 04:17:07;;;;;;;0.00;0.00;;;;;;;;;;5005510;28;20365;-87
2024/01/29 04:19:33;;;;;;;0.00;0.00;;;;;;;;;;5012512;28;20096;-87
2024/01/29 04:21:59;;;;;;;0.00;0.00;;;;;;;;;;4994916;28;20030;-87
2024/01/29 04:24:24;;;;;;;0.00;0.00;;;;;;;;;;5022736;28;20030;-87
2024/01/29 04:26:50;;;;;;;0.00;0.00;;;;;;;;;;5015633;28;20049;-87
2024/01/29 04:29:16;;;;;;;0.00;0.00;;;;;;;;;;5033219;28;20145;-87
2024/01/29 04:31:42;;;;;;;0.00;0.00;;;;;;;;;;5015434;28;20037;-87
2024/01/29 04:34:09;;;;;;;0.00;0.00;;;;;;;;;;4999394;28;20475;-87
2024/01/29 04:36:34;;;;;;;0.00;0.00;;;;;;;;;;5033035;28;20453;-87
2024/01/29 04:39:00;;;;;;;0.00;0.00;;;;;;;;;;5015463;28;20045;-87
2024/01/29 04:41:25;;;;;;;0.00;0.00;;;;;;;;;;5015763;28;20132;-87
2024/01/29 04:43:51;;;;;;;0.00;0.00;;;;;;;;;;5033063;28;20163;-87
2024/01/29 04:46:16;;;;;;;0.00;0.00;;;;;;;;;;5032750;28;20033;-87
2024/01/29 04:48:42;;;;;;;0.00;0.00;;;;;;;;;;5033050;28;20034;-87
2024/01/29 04:51:08;;;;;;;0.00;0.00;;;;;;;;;;5019075;28;20526;-86
2024/01/29 04:53:34;;;;;;;0.00;0.00;;;;;;;;;;5019215;28;20032;-86
2024/01/29 04:56:02;;;;;;;0.00;0.00;;;;;;;;;;5019059;28;20030;-87
2024/01/29 04:58:30;;;;;;;0.00;0.00;;;;;;;;;;5018803;28;20073;-87
2024/01/29 05:00:55;;;;;;;0.00;0.00;;;;;;;;;;5018568;28;20134;-87
2024/01/29 05:03:21;;;;;;;0.00;0.00;;;;;;;;;;5018718;28;20036;-87
2024/01/29 05:05:47;;;;;;;0.00;0.00;;;;;;;;;;5036512;28;20036;-86
2024/01/29 05:08:13;;;;;;;0.00;0.00;;;;;;;;;;5018860;28;20041;-87
2024/01/29 05:10:39;;;;;;;0.00;0.00;;;;;;;;;;5036446;28;20036;-87
2024/01/29 05:13:04;;;;;;;0.00;0.00;;;;;;;;;;5036504;28;20026;-86
2024/01/29 05:15:30;;;;;;;0.00;0.00;;;;;;;;;;5018261;28;20451;-84
2024/01/29 05:17:56;;;;;;;0.00;0.00;;;;;;;;;;4986005;28;20114;-84
2024/01/29 05:20:21;;;;;;;0.00;0.00;;;;;;;;;;4998886;28;20108;-84
2024/01/29 05:22:47;;;;;;;0.00;0.00;;;;;;;;;;5016380;28;20037;-84
2024/01/29 05:25:12;;;;;;;0.00;0.00;;;;;;;;;;4998077;28;20034;-84
2024/01/29 05:27:38;;;;;;;0.00;0.00;;;;;;;;;;4997419;28;20073;-84
2024/01/29 05:30:04;;;;;;;0.00;0.00;;;;;;;;;;4996125;28;20157;-84
2024/01/29 05:32:29;;;;;;;0.00;0.00;;;;;;;;;;4996376;28;20088;-85
2024/01/29 05:34:55;;;;;;;0.00;0.00;;;;;;;;;;4996712;28;20026;-86
2024/01/29 05:37:20;;;;;;;0.00;0.00;;;;;;;;;;4996897;28;20036;-85
2024/01/29 05:39:46;;;;;;;0.05;0.00;;;;;;;;;;4978880;28;20030;-85
2024/01/29 05:42:11;;;;;;;0.00;0.00;;;;;;;;;;4978813;28;20033;-81
2024/01/29 05:44:36;;;;;;;0.00;0.00;;;;;;;;;;4995771;28;20448;-82
2024/01/29 05:47:02;;;;;;;0.00;0.00;;;;;;;;;;4978719;28;20084;-79
2024/01/29 05:49:28;;;;;;;0.00;0.00;;;;;;;;;;5014663;28;20140;-79
2024/01/29 05:51:54;;;;;;;0.00;0.00;;;;;;;;;;5027674;28;20038;-79
2024/01/29 05:54:19;;;;;;;0.00;0.00;;;;;;;;;;5000103;28;20093;-80
2024/01/29 05:56:46;;;;;;;0.00;0.00;;;;;;;;;;4979083;28;20440;-80
2024/01/29 05:59:12;;;;;;;0.00;0.00;;;;;;;;;;4982698;28;20042;-81
2024/01/29 06:01:37;;;;;;;0.00;0.00;;;;;;;;;;5014237;28;20037;-79
2024/01/29 06:04:04;;;;;;;0.00;0.00;;;;;;;;;;5019124;28;20051;-83
2024/01/29 06:06:30;;;;;;;0.00;0.00;;;;;;;;;;5020976;28;20060;-83
2024/01/29 06:08:57;;;;;;;0.00;0.00;;;;;;;;;;5023929;28;20041;-82
2024/01/29 06:11:23;;;;;;;0.00;0.00;;;;;;;;;;5017561;28;20033;-84
2024/01/29 06:13:49;;;;;;;0.00;0.00;;;;;;;;;;5008109;28;20030;-83
2024/01/29 06:16:25;;;;;;;0.00;0.00;;;;;;;;;;4991593;28;20129;-84
2024/01/29 06:18:50;;;;;;;0.00;0.00;;;;;;;;;;5015113;28;20443;-82
2024/01/29 06:21:16;;;;;;;0.00;0.00;;;;;;;;;;4999692;28;20035;-81
2024/01/29 06:23:42;;;;;;;0.00;0.00;;;;;;;;;;4994450;28;20054;-83
2024/01/29 06:26:07;;;;;;;0.00;0.00;;;;;;;;;;5011742;28;20049;-83
2024/01/29 06:28:33;;;;;;;0.00;0.00;;;;;;;;;;5006287;28;20112;-81
2024/01/29 06:30:59;;;;;;;0.00;0.00;;;;;;;;;;4998603;28;20034;-85
2024/01/29 06:33:25;;;;;;;0.00;0.00;;;;;;;;;;5001895;28;20642;-82
2024/01/29 06:35:51;;;;;;;0.00;0.00;;;;;;;;;;4989368;28;20073;-81
2024/01/29 06:38:26;;;;;;;0.00;0.00;;;;;;;;;;4998869;28;20061;-83
2024/01/29 06:40:52;;;;;;;0.00;0.00;;;;;;;;;;5011231;28;20033;-84
2024/01/29 06:43:53;;;;;;;0.00;0.00;;;;;;;;;;4975762;28;20125;-82
2024/01/29 06:46:19;;;;;;;0.00;0.00;;;;;;;;;;4973321;28;20034;-82
2024/01/29 06:48:44;;;;;;;0.00;0.00;;;;;;;;;;5005716;28;20121;-84
2024/01/29 06:51:10;;;;;;;0.00;0.00;;;;;;;;;;5012039;28;20052;-85
2024/01/29 06:53:36;;;;;;;0.00;0.00;;;;;;;;;;4995614;28;20068;-84
2024/01/29 07:19:33;;;;;;;0.00;0.00;;;;;;;;;;5053170;22;20053;-87
2024/01/29 07:31:17;;;;;;;;;;;;;;;;;;;;;
2024/01/29 07:34:09;;;;;;;;;;;;;;;;;;;;;
2024/01/29 07:37:12;;;;;;;0.00;0.00;;;;;;;;;;5127179;23;20870;-88
2024/01/29 07:40:43;;;;;;;0.00;0.00;;;;;;;;;;5007678;23;20119;-87
2024/01/29 07:43:42;;;;;;;0.00;0.00;;;;;;;;;;5405875;23;20028;-87
2024/01/29 07:52:00;;;;;;;0.00;0.00;;;;;;;;;;5027820;22;20153;-87
2024/01/29 07:58:11;;;;;;;;;;;;;;;;;;;;;
2024/01/29 08:01:33;;;;;;;0.00;0.00;;;;;;;;;;5018108;28;20147;-88
2024/01/29 08:07:30;;;;;;;0.00;0.00;;;;;;;;;;5204759;23;20070;-89
2024/01/29 08:10:29;;;;;;;0.00;0.00;;;;;;;;;;4998157;28;20040;-84
2024/01/29 08:19:50;;;;;;;0.00;0.00;;;;;;;;;;5029607;22;20084;-86
2024/01/29 08:22:49;;;;;;;0.00;0.00;;;;;;;;;;4976675;28;20045;-88
2024/01/29 08:26:02;;;;;;;0.00;0.00;;;;;;;;;;4980098;28;20460;-88
2024/01/29 08:28:48;;;;;;;0.00;0.00;;;;;;;;;;4976416;23;20066;-88
2024/01/29 08:31:36;;;;;;;0.00;0.00;;;;;;;;;;5375113;22;20028;-86
2024/01/29 08:34:04;;;;;;;0.00;0.00;;;;;;;;;;4996648;28;20113;-84
2024/01/29 08:36:30;;;;;;;0.00;0.00;;;;;;;;;;5017266;28;20040;-84
2024/01/29 08:38:55;;;;;;;0.00;0.00;;;;;;;;;;5026375;28;20524;-83
2024/01/29 08:41:21;;;;;;;0.00;0.00;;;;;;;;;;4982332;28;20033;-84
2024/01/29 08:43:47;;;;;;;0.00;0.00;;;;;;;;;;5015951;28;20056;-85
2024/01/29 08:46:12;;;;;;;0.00;0.00;;;;;;;;;;5013116;28;20037;-85
2024/01/29 08:48:38;;;;;;;0.00;0.00;;;;;;;;;;4965530;28;20091;-85
2024/01/29 08:51:04;;;;;;;0.00;0.00;;;;;;;;;;4996487;28;20360;-85
2024/01/29 08:59:36;;;;;;;0.00;0.00;;;;;;;;;;5261774;23;20455;-85
2024/01/29 09:02:05;;;;;;;0.00;0.00;;;;;;;;;;4997346;28;20146;-86
2024/01/29 09:04:30;;;;;;;0.00;0.00;;;;;;;;;;4968992;28;20030;-83
2024/01/29 09:19:32;;;;;;;0.00;0.00;;;;;;;;;;5416686;22;20088;-84
2024/01/29 09:27:51;;;;;;;0.00;0.00;;;;;;;;;;5930744;22;20053;-87
2024/01/29 09:30:20;;;;;;;0.00;0.00;;;;;;;;;;5002796;28;20038;-86
2024/01/29 09:32:45;;;;;;;0.00;0.00;;;;;;;;;;4998570;28;20033;-84
2024/01/29 09:57:54;;;;;;;0.00;0.00;;;;;;;;;;5040595;23;20742;-83
2024/01/29 10:00:19;;;;;;;0.00;0.00;;;;;;;;;;5002459;28;20094;-84
2024/01/29 10:30:05;;;;;;;0.00;0.00;;;;;;;;;;5273620;23;20382;-85
2024/01/29 10:32:30;;;;;;;0.00;0.00;;;;;;;;;;5018931;28;20183;-83
2024/01/29 10:37:27;;;;;;;0.00;0.00;;;;;;;;;;6050863;22;20036;-83
2024/01/29 10:45:57;;;;;;;0.00;0.00;;;;;;;;;;5225729;22;20405;-85
2024/01/29 10:48:23;;;;;;;0.00;0.00;;;;;;;;;;5002807;28;20033;-88
2024/01/29 10:50:49;;;;;;;0.00;0.00;;;;;;;;;;5013579;28;20028;-88
2024/01/29 10:53:16;;;;;;;0.00;0.00;;;;;;;;;;4975813;28;20113;-86
2024/01/29 10:55:51;;;;;;;0.00;0.00;;;;;;;;;;5026048;28;20037;-85
2024/01/29 10:58:20;;;;;;;0.00;0.00;;;;;;;;;;5001247;28;20363;-86
2024/01/29 11:00:46;;;;;;;0.00;0.00;;;;;;;;;;5040981;28;20025;-88
2024/01/29 11:03:13;;;;;;;0.00;0.00;;;;;;;;;;5040011;28;20367;-87
2024/01/29 11:05:42;;;;;;;0.00;0.00;;;;;;;;;;5004389;28;20053;-85
2024/01/29 11:08:14;;;;;;;0.00;0.00;;;;;;;;;;5012714;28;20133;-84
2024/01/29 11:10:40;;;;;;;0.00;0.00;;;;;;;;;;4988186;28;20042;-85
2024/01/29 11:13:05;;;;;;;0.00;0.00;;;;;;;;;;4992543;28;20049;-85
2024/01/29 11:15:31;;;;;;;0.00;0.00;;;;;;;;;;5024641;28;20041;-87
2024/01/29 11:17:57;;;;;;;0.00;0.00;;;;;;;;;;5028818;28;20029;-82
2024/01/29 11:20:26;;;;;;;0.00;0.00;;;;;;;;;;5002907;28;20034;-84
2024/01/29 11:22:59;;;;;;;0.00;0.00;;;;;;;;;;5026629;28;20039;-84
2024/01/29 11:25:25;;;;;;;0.00;0.00;;;;;;;;;;5026165;28;20033;-84
2024/01/29 11:27:51;;;;;;;0.00;0.00;;;;;;;;;;5010680;28;20037;-89
2024/01/29 11:30:26;;;;;;;0.00;0.00;;;;;;;;;;5058512;28;20033;-86
2024/01/29 11:33:14;;;;;;;0.00;0.00;;;;;;;;;;5010880;28;20042;-90
2024/01/29 11:35:41;;;;;;;0.00;0.00;;;;;;;;;;4996989;28;20040;-88
2024/01/29 11:38:11;;;;;;;0.00;0.00;;;;;;;;;;4968111;28;20064;-88
2024/01/29 11:40:43;;;;;;;0.00;0.00;;;;;;;;;;5044664;28;20077;-89
2024/01/29 11:43:11;;;;;;;0.00;0.00;;;;;;;;;;5003800;28;20041;-88
2024/01/29 11:45:36;;;;;;;0.00;0.00;;;;;;;;;;5053305;28;20044;-86
2024/01/29 11:48:02;;;;;;;0.00;0.00;;;;;;;;;;5038115;28;20382;-85
2024/01/29 11:50:30;;;;;;;0.00;0.00;;;;;;;;;;5062805;28;20044;-85
2024/01/29 11:52:56;;;;;;;0.00;0.00;;;;;;;;;;5017106;28;20045;-84
2024/01/29 11:55:21;;;;;;;0.00;0.00;;;;;;;;;;5048786;28;20036;-84
2024/01/29 11:57:48;;;;;;;0.00;0.00;;;;;;;;;;5025926;28;20048;-80
2024/01/29 12:00:19;;;;;;;0.00;0.00;;;;;;;;;;5021161;28;20032;-82
2024/01/29 12:02:51;;;;;;;0.00;0.00;;;;;;;;;;5051212;28;20029;-83
2024/01/29 12:05:17;;;;;;;0.00;0.00;;;;;;;;;;5037493;28;20029;-82
2024/01/29 12:07:47;;;;;;;0.00;0.00;;;;;;;;;;5034683;28;20032;-82
2024/01/29 12:10:13;;;;;;;0.00;0.00;;;;;;;;;;5034337;28;20064;-82
2024/01/29 12:12:38;;;;;;;0.00;0.00;;;;;;;;;;5021847;28;20109;-81
2024/01/29 12:15:06;;;;;;;0.00;0.00;;;;;;;;;;5033497;28;20032;-84
2024/01/29 12:17:32;;;;;;;0.00;0.00;;;;;;;;;;5044877;28;20029;-87
2024/01/29 12:19:57;;;;;;;0.00;0.00;;;;;;;;;;5018175;28;20044;-81
2024/01/29 12:22:24;;;;;;;0.00;0.00;;;;;;;;;;5028392;28;20052;-82
2024/01/29 12:24:53;;;;;;;0.00;0.00;;;;;;;;;;5050301;28;20034;-88
2024/01/29 12:27:18;;;;;;;0.00;0.00;;;;;;;;;;5036006;28;20478;-84
2024/01/29 12:29:45;;;;;;;0.00;0.00;;;;;;;;;;5035146;28;20040;-84
2024/01/29 12:32:17;;;;;;;0.00;0.00;;;;;;;;;;5055394;28;20055;-86
2024/01/29 12:34:45;;;;;;;0.00;0.00;;;;;;;;;;5006077;28;20451;-86
2024/01/29 12:37:18;;;;;;;0.00;0.00;;;;;;;;;;5057821;28;20029;-86
2024/01/29 12:39:54;;;;;;;0.00;0.00;;;;;;;;;;5056084;28;20029;-85
2024/01/29 12:42:21;;;;;;;0.00;0.00;;;;;;;;;;5037778;28;20021;-87
2024/01/29 12:45:10;;;;;;;0.00;0.00;;;;;;;;;;5030215;28;20076;-87
2024/01/29 12:47:35;;;;;;;0.00;0.00;;;;;;;;;;5051395;28;20064;-86
2024/01/29 12:50:01;;;;;;;0.00;0.00;;;;;;;;;;5029653;28;20069;-86
2024/01/29 12:52:30;;;;;;;0.00;0.00;;;;;;;;;;5055686;28;20070;-88
2024/01/29 12:54:58;;;;;;;0.00;0.00;;;;;;;;;;5054795;28;20339;-88
2024/01/29 12:57:23;;;;;;;0.00;0.00;;;;;;;;;;5038496;28;20052;-87
2024/01/29 12:59:49;;;;;;;0.00;0.00;;;;;;;;;;5037281;28;20123;-86
2024/01/29 13:02:16;;;;;;;0.00;0.00;;;;;;;;;;5071417;28;20113;-86
2024/01/29 13:04:41;;;;;;;0.00;0.00;;;;;;;;;;5070808;28;20017;-88
2024/01/29 13:07:07;;;;;;;0.00;0.00;;;;;;;;;;5053725;28;20032;-87
2024/01/29 13:09:33;;;;;;;0.00;0.00;;;;;;;;;;5075379;28;20365;-87
2024/01/29 13:11:58;;;;;;;0.00;0.00;;;;;;;;;;5049480;28;20108;-86
2024/01/29 13:14:26;;;;;;;0.00;0.00;;;;;;;;;;5050967;28;20032;-87
2024/01/29 13:16:52;;;;;;;0.00;0.00;;;;;;;;;;5051899;28;20503;-88
2024/01/29 13:19:18;;;;;;;0.00;0.00;;;;;;;;;;5043460;28;20020;-87
2024/01/29 13:21:44;;;;;;;0.00;0.00;;;;;;;;;;5077018;28;20060;-86
2024/01/29 13:24:10;;;;;;;0.20;0.00;;;;;;;;;;5077068;28;20468;-86
2024/01/29 13:26:40;;;;;;;0.00;0.00;;;;;;;;;;5059127;28;20043;-88
2024/01/29 13:29:07;;;;;;;0.00;0.00;;;;;;;;;;5059325;28;20036;-89
2024/01/29 13:31:32;;;;;;;0.00;0.00;;;;;;;;;;5077018;28;20033;-88
2024/01/29 13:34:00;;;;;;;0.00;0.00;;;;;;;;;;5058532;28;20500;-89
2024/01/29 13:36:26;;;;;;;0.00;0.00;;;;;;;;;;5076837;28;20409;-88
2024/01/29 13:38:52;;;;;;;0.00;0.00;;;;;;;;;;5076904;28;20024;-87
2024/01/29 13:41:17;;;;;;;0.00;0.00;;;;;;;;;;5039777;28;20377;-90
2024/01/29 13:43:43;;;;;;;0.00;0.00;;;;;;;;;;5059820;28;20119;-88
2024/01/29 13:46:08;;;;;;;0.00;0.00;;;;;;;;;;5056665;28;20060;-86
2024/01/29 13:48:35;;;;;;;0.00;0.00;;;;;;;;;;5024000;28;20047;-87
2024/01/29 13:51:00;;;;;;;0.00;0.00;;;;;;;;;;5041307;28;20103;-86
2024/01/29 13:53:26;;;;;;;0.00;0.00;;;;;;;;;;5056432;28;20041;-86
2024/01/29 13:55:51;;;;;;;0.00;0.00;;;;;;;;;;5056620;28;20032;-87
2024/01/29 13:58:17;;;;;;;0.00;0.00;;;;;;;;;;5056104;28;20447;-87
2024/01/29 14:00:42;;;;;;;0.00;0.00;;;;;;;;;;5056272;28;20132;-87
2024/01/29 14:03:08;;;;;;;0.00;0.00;;;;;;;;;;5055904;28;20024;-87
2024/01/29 14:05:33;;;;;;;0.00;0.00;;;;;;;;;;5056050;28;20033;-86
2024/01/29 14:07:59;;;;;;;0.00;0.00;;;;;;;;;;5038061;28;20124;-87
2024/01/29 14:10:24;;;;;;;0.00;0.00;;;;;;;;;;5021959;28;20126;-85
2024/01/29 14:12:50;;;;;;;0.00;0.00;;;;;;;;;;5056062;28;20041;-86
2024/01/29 14:15:17;;;;;;;0.00;0.00;;;;;;;;;;5038092;28;20033;-87
2024/01/29 14:17:43;;;;;;;0.00;0.00;;;;;;;;;;5041777;28;20041;-87
2024/01/29 14:20:09;;;;;;;0.00;0.00;;;;;;;;;;5005810;28;20204;-87
2024/01/29 14:22:36;;;;;;;0.00;0.00;;;;;;;;;;5037651;28;20079;-86
2024/01/29 14:25:02;;;;;;;0.00;0.00;;;;;;;;;;5038383;28;20029;-86
2024/01/29 14:27:27;;;;;;;0.00;0.00;;;;;;;;;;5023737;28;20072;-85
2024/01/29 14:29:54;;;;;;;0.00;0.00;;;;;;;;;;5025884;28;20035;-86
2024/01/29 14:32:20;;;;;;;0.00;0.00;;;;;;;;;;5041399;28;20435;-87
2024/01/29 14:34:48;;;;;;;0.00;0.00;;;;;;;;;;5058371;28;20029;-89
2024/01/29 14:37:14;;;;;;;0.00;0.00;;;;;;;;;;5056401;28;20438;-88
2024/01/29 14:39:39;;;;;;;0.10;0.00;;;;;;;;;;5005468;28;20028;-86
2024/01/29 14:42:05;;;;;;;0.00;0.00;;;;;;;;;;5055072;28;20051;-86
2024/01/29 14:44:32;;;;;;;0.00;0.00;;;;;;;;;;5036679;28;20045;-86
2024/01/29 14:46:57;;;;;;;0.00;0.00;;;;;;;;;;5020622;28;20063;-87
2024/01/29 14:49:23;;;;;;;0.00;0.00;;;;;;;;;;5037658;28;20033;-87
2024/01/29 14:51:48;;;;;;;0.00;0.00;;;;;;;;;;5037445;28;20025;-86
2024/01/29 14:54:14;;;;;;;0.00;0.00;;;;;;;;;;5037770;28;20085;-87
2024/01/29 14:56:40;;;;;;;0.00;0.00;;;;;;;;;;5037563;28;20276;-86
2024/01/29 14:59:05;;;;;;;0.00;0.00;;;;;;;;;;5037067;28;20045;-88
2024/01/29 15:01:33;;;;;;;0.00;0.00;;;;;;;;;;5020962;28;20037;-89
2024/01/29 15:04:00;;;;;;;0.00;0.00;;;;;;;;;;5037660;28;20442;-87
2024/01/29 15:06:26;;;;;;;0.00;0.00;;;;;;;;;;5055493;28;20060;-89
2024/01/29 15:08:52;;;;;;;0.28;0.00;;;;;;;;;;5023788;28;20037;-90
2024/01/29 15:11:19;;;;;;;0.00;0.00;;;;;;;;;;5023036;28;20107;-89
2024/01/29 15:13:45;;;;;;;0.00;0.00;;;;;;;;;;5057120;28;20039;-87
2024/01/29 15:16:10;;;;;;;0.00;0.00;;;;;;;;;;5030994;28;20064;-87
2024/01/29 15:18:36;;;;;;;0.00;0.00;;;;;;;;;;5059961;28;20029;-89
2024/01/29 15:21:01;;;;;;;0.00;0.00;;;;;;;;;;5037819;28;20028;-91
2024/01/29 15:23:27;;;;;;;0.00;0.00;;;;;;;;;;5056186;28;20029;-90
2024/01/29 15:25:55;;;;;;;0.00;0.00;;;;;;;;;;5020444;28;20424;-88
2024/01/29 15:28:20;;;;;;;0.00;0.00;;;;;;;;;;5037317;28;20029;-87
2024/01/29 15:30:47;;;;;;;0.00;0.00;;;;;;;;;;5021952;28;20021;-87
2024/01/29 15:33:12;;;;;;;0.00;0.00;;;;;;;;;;5041454;28;20048;-86
2024/01/29 15:35:38;;;;;;;0.00;0.00;;;;;;;;;;5053900;28;20029;-85
2024/01/29 15:38:03;;;;;;;0.00;0.00;;;;;;;;;;5041076;28;20029;-86
2024/01/29 15:40:29;;;;;;;0.00;0.00;;;;;;;;;;5052102;28;20055;-87
2024/01/29 15:42:58;;;;;;;0.00;0.00;;;;;;;;;;5040375;28;20084;-87
2024/01/29 15:45:24;;;;;;;0.00;0.00;;;;;;;;;;5062789;28;20041;-87
2024/01/29 15:47:54;;;;;;;0.00;0.00;;;;;;;;;;5042835;28;20051;-87
2024/01/29 15:50:19;;;;;;;0.00;0.00;;;;;;;;;;5030500;28;20033;-87
2024/01/29 15:52:45;;;;;;;0.00;0.00;;;;;;;;;;5041700;28;20044;-88
2024/01/29 15:55:11;;;;;;;0.00;0.00;;;;;;;;;;5037371;28;20037;-89
2024/01/29 15:57:37;;;;;;;0.00;0.00;;;;;;;;;;5054229;28;20033;-89
2024/01/29 16:00:04;;;;;;;0.00;0.00;;;;;;;;;;5054519;28;20450;-89
2024/01/29 16:02:29;;;;;;;0.00;0.00;;;;;;;;;;5054455;28;20043;-87
2024/01/29 16:04:55;;;;;;;0.00;0.00;;;;;;;;;;5019871;28;20037;-89
2024/01/29 16:07:20;;;;;;;0.00;0.00;;;;;;;;;;5036406;28;20119;-89
2024/01/29 16:09:46;;;;;;;0.00;0.00;;;;;;;;;;5054130;28;20461;-88
2024/01/29 16:12:12;;;;;;;0.00;0.00;;;;;;;;;;5020347;28;20060;-88
2024/01/29 16:14:37;;;;;;;0.00;0.00;;;;;;;;;;5019898;28;20402;-89
2024/01/29 16:17:03;;;;;;;0.00;0.00;;;;;;;;;;5036498;28;20075;-88
2024/01/29 16:19:29;;;;;;;0.00;0.00;;;;;;;;;;5036364;28;20194;-88
2024/01/29 16:21:56;;;;;;;0.00;0.00;;;;;;;;;;5054550;28;20475;-87
2024/01/29 16:24:21;;;;;;;0.00;0.00;;;;;;;;;;5039494;28;20052;-89
2024/01/29 16:26:49;;;;;;;0.00;0.00;;;;;;;;;;5058694;28;20025;-89
2024/01/29 16:29:14;;;;;;;0.00;0.00;;;;;;;;;;5063006;28;20029;-88
2024/01/29 16:31:42;;;;;;;0.00;0.00;;;;;;;;;;5043342;28;20124;-87
2024/01/29 16:34:08;;;;;;;0.00;0.00;;;;;;;;;;5041784;28;20047;-89
2024/01/29 16:36:33;;;;;;;0.00;0.00;;;;;;;;;;5036767;28;20025;-87
2024/01/29 16:38:59;;;;;;;0.00;0.00;;;;;;;;;;5037120;28;20071;-87
2024/01/29 16:41:25;;;;;;;0.00;0.00;;;;;;;;;;5041881;28;20393;-87
2024/01/29 16:43:51;;;;;;;0.00;0.00;;;;;;;;;;5025627;28;20067;-88
2024/01/29 16:46:18;;;;;;;0.00;0.00;;;;;;;;;;5040542;28;20033;-88
2024/01/29 16:48:43;;;;;;;0.20;0.00;;;;;;;;;;5044704;28;20029;-88
2024/01/29 16:51:09;;;;;;;0.00;0.00;;;;;;;;;;5064081;28;20092;-87
2024/01/29 16:53:35;;;;;;;0.00;0.00;;;;;;;;;;5041173;28;20033;-86
2024/01/29 16:56:00;;;;;;;0.00;0.00;;;;;;;;;;5076272;28;20108;-86
2024/01/29 16:58:26;;;;;;;0.00;0.00;;;;;;;;;;5075407;28;20033;-87
2024/01/29 17:00:51;;;;;;;0.00;0.00;;;;;;;;;;5057746;28;20036;-87
2024/01/29 17:03:17;;;;;;;0.10;0.00;;;;;;;;;;5040278;28;20032;-88